Terminal Aerodrome Forecast
Issued by NWS

Home | Current Version | Previous Version | Text Only | Print | Product List | Glossary On
Versions: 1 2 3 4 5 6 7 8 9 10 11 12 13
000
FTUS43 KLSX 240500
TAFCPS
TAF
KCPS 240540Z 2406/2506 32005KT P6SM BKN022 OVC100
     FM240900 32006KT 6SM -RA OVC015
     FM241200 31008KT 3SM -RASN OVC012
     FM241500 30010KT 2SM -SN OVC008
     FM241900 28010G18KT P6SM -RASN OVC008
     FM242300 27008KT P6SM OVC008=

USA.gov is the U.S. government's official web portal to all federal, state and local government web resources and services.